sensor_id;sensor_type;location;lat;lon;timestamp;pressure;altitude;pressure_sealevel;temperature;humidity
67803;BME280;54601;51.378;-1.342;2023-03-14T00:01:53;97381.93;;;17.98;33.98
67803;BME280;54601;51.378;-1.342;2023-03-14T00:04:19;97384.87;;;18.16;33.70
67803;BME280;54601;51.378;-1.342;2023-03-14T00:06:44;97398.15;;;17.80;34.25
67803;BME280;54601;51.378;-1.342;2023-03-14T00:09:09;97444.08;;;18.05;33.76
67803;BME280;54601;51.378;-1.342;2023-03-14T00:11:37;97481.42;;;17.95;33.92
67803;BME280;54601;51.378;-1.342;2023-03-14T00:14:00;97488.99;;;17.80;34.16
67803;BME280;54601;51.378;-1.342;2023-03-14T00:16:26;97498.63;;;17.76;34.15
67803;BME280;54601;51.378;-1.342;2023-03-14T00:18:50;97508.82;;;17.64;34.12
67803;BME280;54601;51.378;-1.342;2023-03-14T00:21:16;97516.75;;;17.59;34.31
67803;BME280;54601;51.378;-1.342;2023-03-14T00:23:41;97525.09;;;17.81;33.94
67803;BME280;54601;51.378;-1.342;2023-03-14T00:26:07;97531.34;;;17.75;34.01
67803;BME280;54601;51.378;-1.342;2023-03-14T00:28:31;97542.14;;;17.78;33.94
67803;BME280;54601;51.378;-1.342;2023-03-14T00:30:56;97547.44;;;17.73;34.04
67803;BME280;54601;51.378;-1.342;2023-03-14T00:33:22;97545.09;;;17.72;33.90
67803;BME280;54601;51.378;-1.342;2023-03-14T00:35:52;97554.06;;;17.75;33.82
67803;BME280;54601;51.378;-1.342;2023-03-14T00:38:12;97562.11;;;17.70;33.87
67803;BME280;54601;51.378;-1.342;2023-03-14T00:40:39;97577.22;;;17.89;33.85
67803;BME280;54601;51.378;-1.342;2023-03-14T00:43:03;97586.97;;;17.61;33.93
67803;BME280;54601;51.378;-1.342;2023-03-14T00:45:28;97597.85;;;17.72;33.60
67803;BME280;54601;51.378;-1.342;2023-03-14T00:47:53;97604.90;;;17.82;33.80
67803;BME280;54601;51.378;-1.342;2023-03-14T00:50:18;97616.18;;;17.54;33.89
67803;BME280;54601;51.378;-1.342;2023-03-14T00:52:43;97628.04;;;17.47;33.85
67803;BME280;54601;51.378;-1.342;2023-03-14T00:55:09;97638.26;;;17.50;33.83
67803;BME280;54601;51.378;-1.342;2023-03-14T00:57:34;97647.46;;;17.63;33.54
67803;BME280;54601;51.378;-1.342;2023-03-14T00:59:59;97650.69;;;17.51;33.71
67803;BME280;54601;51.378;-1.342;2023-03-14T01:02:24;97657.81;;;17.55;33.65
67803;BME280;54601;51.378;-1.342;2023-03-14T01:04:55;97668.18;;;17.32;33.92
67803;BME280;54601;51.378;-1.342;2023-03-14T01:07:15;97676.68;;;17.55;33.87
67803;BME280;54601;51.378;-1.342;2023-03-14T01:09:40;97684.90;;;17.52;33.96
67803;BME280;54601;51.378;-1.342;2023-03-14T01:12:05;97698.89;;;17.56;33.43
67803;BME280;54601;51.378;-1.342;2023-03-14T01:14:31;97697.17;;;17.56;33.45
67803;BME280;54601;51.378;-1.342;2023-03-14T01:16:56;97710.27;;;17.46;33.46
67803;BME280;54601;51.378;-1.342;2023-03-14T01:19:21;97716.70;;;17.56;33.39
67803;BME280;54601;51.378;-1.342;2023-03-14T01:21:46;97717.89;;;17.63;33.59
67803;BME280;54601;51.378;-1.342;2023-03-14T01:24:11;97724.01;;;17.59;33.56
67803;BME280;54601;51.378;-1.342;2023-03-14T01:26:37;97732.37;;;17.54;33.55
67803;BME280;54601;51.378;-1.342;2023-03-14T01:29:02;97739.25;;;17.92;33.37
67803;BME280;54601;51.378;-1.342;2023-03-14T01:31:27;97741.44;;;17.40;33.33
67803;BME280;54601;51.378;-1.342;2023-03-14T01:33:53;97752.55;;;17.48;33.20
67803;BME280;54601;51.378;-1.342;2023-03-14T01:36:18;97755.67;;;17.36;33.33
67803;BME280;54601;51.378;-1.342;2023-03-14T01:38:43;97769.37;;;17.34;33.27
67803;BME280;54601;51.378;-1.342;2023-03-14T01:41:13;97774.86;;;17.30;33.30
67803;BME280;54601;51.378;-1.342;2023-03-14T01:43:34;97783.08;;;17.29;33.30
67803;BME280;54601;51.378;-1.342;2023-03-14T01:48:26;97801.75;;;17.31;33.21
67803;BME280;54601;51.378;-1.342;2023-03-14T01:50:49;97805.93;;;17.36;33.05
67803;BME280;54601;51.378;-1.342;2023-03-14T01:53:15;97813.74;;;17.29;33.11
67803;BME280;54601;51.378;-1.342;2023-03-14T01:55:40;97827.21;;;17.37;32.95
67803;BME280;54601;51.378;-1.342;2023-03-14T01:58:05;97836.06;;;17.36;33.00
67803;BME280;54601;51.378;-1.342;2023-03-14T02:00:31;97841.49;;;17.40;33.09
67803;BME280;54601;51.378;-1.342;2023-03-14T02:02:59;97852.32;;;17.49;33.02
67803;BME280;54601;51.378;-1.342;2023-03-14T02:05:24;97859.52;;;17.21;32.99
67803;BME280;54601;51.378;-1.342;2023-03-14T02:07:50;97872.57;;;17.55;32.86
67803;BME280;54601;51.378;-1.342;2023-03-14T02:10:12;97876.79;;;16.96;33.23
67803;BME280;54601;51.378;-1.342;2023-03-14T02:12:37;97882.72;;;17.23;33.23
67803;BME280;54601;51.378;-1.342;2023-03-14T02:15:03;97891.88;;;17.45;32.88
67803;BME280;54601;51.378;-1.342;2023-03-14T02:17:27;97901.61;;;17.33;32.72
67803;BME280;54601;51.378;-1.342;2023-03-14T02:20:07;97911.81;;;17.42;32.79
67803;BME280;54601;51.378;-1.342;2023-03-14T02:22:18;97924.34;;;17.33;32.88
67803;BME280;54601;51.378;-1.342;2023-03-14T02:24:48;97926.54;;;17.27;32.84
67803;BME280;54601;51.378;-1.342;2023-03-14T02:27:11;97933.31;;;17.10;33.05
67803;BME280;54601;51.378;-1.342;2023-03-14T02:29:36;97940.74;;;17.15;33.00
67803;BME280;54601;51.378;-1.342;2023-03-14T02:31:59;97941.80;;;17.19;32.88
67803;BME280;54601;51.378;-1.342;2023-03-14T02:34:25;97952.49;;;17.12;32.57
67803;BME280;54601;51.378;-1.342;2023-03-14T02:36:49;97954.07;;;17.25;32.70
67803;BME280;54601;51.378;-1.342;2023-03-14T02:39:20;97966.00;;;16.72;32.97
67803;BME280;54601;51.378;-1.342;2023-03-14T02:41:40;97978.55;;;17.16;32.62
67803;BME280;54601;51.378;-1.342;2023-03-14T02:44:05;97986.08;;;16.73;32.83
67803;BME280;54601;51.378;-1.342;2023-03-14T02:46:31;97994.60;;;17.00;32.82
67803;BME280;54601;51.378;-1.342;2023-03-14T02:48:59;98004.15;;;16.81;32.91
67803;BME280;54601;51.378;-1.342;2023-03-14T02:51:22;98012.13;;;17.07;32.62
67803;BME280;54601;51.378;-1.342;2023-03-14T02:53:51;98015.50;;;17.11;32.49
67803;BME280;54601;51.378;-1.342;2023-03-14T02:56:11;98020.81;;;17.15;32.34
67803;BME280;54601;51.378;-1.342;2023-03-14T02:58:37;98030.62;;;16.94;32.26
67803;BME280;54601;51.378;-1.342;2023-03-14T03:01:02;98029.79;;;16.98;32.46
67803;BME280;54601;51.378;-1.342;2023-03-14T03:03:27;98036.93;;;17.09;32.56
67803;BME280;54601;51.378;-1.342;2023-03-14T03:05:54;98043.57;;;16.41;32.71
67803;BME280;54601;51.378;-1.342;2023-03-14T03:08:19;98044.07;;;17.18;32.43
67803;BME280;54601;51.378;-1.342;2023-03-14T03:10:43;98052.82;;;17.12;32.34
67803;BME280;54601;51.378;-1.342;2023-03-14T03:13:08;98054.66;;;17.01;32.43
67803;BME280;54601;51.378;-1.342;2023-03-14T03:15:34;98061.04;;;16.59;32.34
67803;BME280;54601;51.378;-1.342;2023-03-14T03:17:59;98068.68;;;17.08;32.23
67803;BME280;54601;51.378;-1.342;2023-03-14T03:20:24;98072.73;;;16.91;32.10
67803;BME280;54601;51.378;-1.342;2023-03-14T03:22:50;98077.20;;;16.84;32.17
67803;BME280;54601;51.378;-1.342;2023-03-14T03:25:15;98085.83;;;16.91;31.96
67803;BME280;54601;51.378;-1.342;2023-03-14T03:27:40;98086.62;;;16.92;32.23
67803;BME280;54601;51.378;-1.342;2023-03-14T03:30:07;98095.32;;;16.97;32.12
67803;BME280;54601;51.378;-1.342;2023-03-14T03:32:31;98096.13;;;17.17;31.84
67803;BME280;54601;51.378;-1.342;2023-03-14T03:34:56;98099.27;;;16.96;31.71
67803;BME280;54601;51.378;-1.342;2023-03-14T03:37:21;98106.03;;;16.56;32.06
67803;BME280;54601;51.378;-1.342;2023-03-14T03:39:47;98106.61;;;16.67;32.22
67803;BME280;54601;51.378;-1.342;2023-03-14T03:42:12;98107.57;;;16.53;32.02
67803;BME280;54601;51.378;-1.342;2023-03-14T03:44:37;98114.05;;;16.66;31.78
67803;BME280;54601;51.378;-1.342;2023-03-14T03:47:03;98122.69;;;17.10;31.56
67803;BME280;54601;51.378;-1.342;2023-03-14T03:49:29;98130.49;;;16.94;31.68
67803;BME280;54601;51.378;-1.342;2023-03-14T03:51:53;98137.97;;;16.51;31.90
67803;BME280;54601;51.378;-1.342;2023-03-14T03:54:18;98133.05;;;16.81;31.78
67803;BME280;54601;51.378;-1.342;2023-03-14T03:56:44;98135.06;;;16.42;31.85
67803;BME280;54601;51.378;-1.342;2023-03-14T03:59:09;98137.39;;;16.74;31.77
67803;BME280;54601;51.378;-1.342;2023-03-14T04:01:34;98145.76;;;16.54;31.63
67803;BME280;54601;51.378;-1.342;2023-03-14T04:03:59;98151.21;;;16.88;31.53
67803;BME280;54601;51.378;-1.342;2023-03-14T04:06:25;98158.38;;;16.98;31.40
67803;BME280;54601;51.378;-1.342;2023-03-14T04:08:50;98173.72;;;16.89;31.39
67803;BME280;54601;51.378;-1.342;2023-03-14T04:11:15;98174.01;;;16.75;31.55
67803;BME280;54601;51.378;-1.342;2023-03-14T04:13:40;98170.35;;;16.29;31.70
67803;BME280;54601;51.378;-1.342;2023-03-14T04:16:13;98169.20;;;16.54;31.65
67803;BME280;54601;51.378;-1.342;2023-03-14T04:18:31;98174.09;;;16.76;31.43
67803;BME280;54601;51.378;-1.342;2023-03-14T04:20:57;98178.89;;;16.56;31.55
67803;BME280;54601;51.378;-1.342;2023-03-14T04:23:22;98177.70;;;16.56;31.34
67803;BME280;54601;51.378;-1.342;2023-03-14T04:25:47;98185.74;;;16.35;31.49
67803;BME280;54601;51.378;-1.342;2023-03-14T04:28:12;98188.67;;;16.69;31.32
67803;BME280;54601;51.378;-1.342;2023-03-14T04:30:37;98195.39;;;16.63;31.36
67803;BME280;54601;51.378;-1.342;2023-03-14T04:33:03;98208.89;;;16.38;31.64
67803;BME280;54601;51.378;-1.342;2023-03-14T04:35:31;98208.96;;;16.79;31.10
67803;BME280;54601;51.378;-1.342;2023-03-14T04:37:53;98211.16;;;16.69;31.19
67803;BME280;54601;51.378;-1.342;2023-03-14T04:40:19;98213.12;;;16.66;31.17
67803;BME280;54601;51.378;-1.342;2023-03-14T04:42:44;98219.75;;;16.62;31.28
67803;BME280;54601;51.378;-1.342;2023-03-14T04:45:10;98223.57;;;16.64;31.22
67803;BME280;54601;51.378;-1.342;2023-03-14T04:47:35;98226.70;;;16.50;31.29
67803;BME280;54601;51.378;-1.342;2023-03-14T04:50:00;98237.09;;;16.68;31.01
67803;BME280;54601;51.378;-1.342;2023-03-14T04:52:26;98246.13;;;16.26;31.40
67803;BME280;54601;51.378;-1.342;2023-03-14T04:54:51;98254.71;;;16.35;31.28
67803;BME280;54601;51.378;-1.342;2023-03-14T04:57:16;98264.21;;;16.46;31.23
67803;BME280;54601;51.378;-1.342;2023-03-14T04:59:41;98272.04;;;16.58;31.06
67803;BME280;54601;51.378;-1.342;2023-03-14T05:02:07;98278.35;;;16.37;31.29
67803;BME280;54601;51.378;-1.342;2023-03-14T05:04:32;98285.34;;;16.58;31.04
67803;BME280;54601;51.378;-1.342;2023-03-14T05:06:57;98288.73;;;16.49;31.07
67803;BME280;54601;51.378;-1.342;2023-03-14T05:09:22;98298.30;;;16.30;31.24
67803;BME280;54601;51.378;-1.342;2023-03-14T05:11:48;98307.26;;;16.09;31.49
67803;BME280;54601;51.378;-1.342;2023-03-14T05:14:13;98308.45;;;16.38;31.09
67803;BME280;54601;51.378;-1.342;2023-03-14T05:16:38;98313.44;;;16.57;30.88
67803;BME280;54601;51.378;-1.342;2023-03-14T05:19:04;98317.36;;;16.18;31.26
67803;BME280;54601;51.378;-1.342;2023-03-14T05:21:29;98320.77;;;16.61;31.04
67803;BME280;54601;51.378;-1.342;2023-03-14T05:23:54;98325.02;;;16.43;30.94
67803;BME280;54601;51.378;-1.342;2023-03-14T05:26:20;98331.88;;;16.23;31.12
67803;BME280;54601;51.378;-1.342;2023-03-14T05:28:45;98330.58;;;16.36;30.98
67803;BME280;54601;51.378;-1.342;2023-03-14T05:31:10;98338.00;;;16.33;30.99
67803;BME280;54601;51.378;-1.342;2023-03-14T05:33:36;98340.29;;;16.44;30.78
67803;BME280;54601;51.378;-1.342;2023-03-14T05:36:01;98344.62;;;16.23;31.04
67803;BME280;54601;51.378;-1.342;2023-03-14T05:38:26;98351.05;;;16.40;30.87
67803;BME280;54601;51.378;-1.342;2023-03-14T05:40:52;98357.40;;;16.35;30.77
67803;BME280;54601;51.378;-1.342;2023-03-14T05:43:17;98359.04;;;16.53;30.68
67803;BME280;54601;51.378;-1.342;2023-03-14T05:45:43;98362.58;;;16.29;30.86
67803;BME280;54601;51.378;-1.342;2023-03-14T05:48:08;98362.04;;;16.66;30.92
67803;BME280;54601;51.378;-1.342;2023-03-14T05:50:33;98368.19;;;16.46;30.86
67803;BME280;54601;51.378;-1.342;2023-03-14T05:52:58;98377.59;;;16.35;30.94
67803;BME280;54601;51.378;-1.342;2023-03-14T05:55:24;98380.79;;;16.06;30.95
67803;BME280;54601;51.378;-1.342;2023-03-14T05:57:49;98387.65;;;16.06;30.97
67803;BME280;54601;51.378;-1.342;2023-03-14T06:00:15;98390.40;;;16.32;30.70
67803;BME280;54601;51.378;-1.342;2023-03-14T06:02:40;98390.74;;;16.68;30.76
67803;BME280;54601;51.378;-1.342;2023-03-14T06:05:06;98396.43;;;16.11;30.84
67803;BME280;54601;51.378;-1.342;2023-03-14T06:07:31;98406.79;;;16.09;30.79
67803;BME280;54601;51.378;-1.342;2023-03-14T06:09:56;98412.76;;;16.00;30.91
67803;BME280;54601;51.378;-1.342;2023-03-14T06:12:21;98420.08;;;16.09;30.72
67803;BME280;54601;51.378;-1.342;2023-03-14T06:14:46;98421.59;;;16.01;30.77
67803;BME280;54601;51.378;-1.342;2023-03-14T06:17:12;98429.70;;;15.99;30.87
67803;BME280;54601;51.378;-1.342;2023-03-14T06:19:37;98435.81;;;16.07;30.66
67803;BME280;54601;51.378;-1.342;2023-03-14T06:22:02;98444.32;;;16.49;30.54
67803;BME280;54601;51.378;-1.342;2023-03-14T06:24:28;98458.71;;;16.15;30.62
67803;BME280;54601;51.378;-1.342;2023-03-14T06:26:53;98467.61;;;16.49;30.49
67803;BME280;54601;51.378;-1.342;2023-03-14T06:29:19;98474.27;;;16.57;30.37
67803;BME280;54601;51.378;-1.342;2023-03-14T06:31:44;98477.76;;;16.27;30.44
67803;BME280;54601;51.378;-1.342;2023-03-14T06:34:09;98484.13;;;16.11;30.77
67803;BME280;54601;51.378;-1.342;2023-03-14T06:36:35;98490.51;;;15.99;30.62
67803;BME280;54601;51.378;-1.342;2023-03-14T06:39:00;98493.84;;;15.98;30.68
67803;BME280;54601;51.378;-1.342;2023-03-14T06:41:25;98501.27;;;16.19;30.54
67803;BME280;54601;51.378;-1.342;2023-03-14T06:43:51;98511.81;;;16.43;30.56
67803;BME280;54601;51.378;-1.342;2023-03-14T06:46:16;98524.41;;;16.10;30.67
67803;BME280;54601;51.378;-1.342;2023-03-14T06:48:41;98529.42;;;16.23;30.65
67803;BME280;54601;51.378;-1.342;2023-03-14T06:51:07;98538.41;;;16.29;30.56
67803;BME280;54601;51.378;-1.342;2023-03-14T06:53:32;98540.19;;;16.14;30.82
67803;BME280;54601;51.378;-1.342;2023-03-14T06:55:57;98538.04;;;16.05;30.88
67803;BME280;54601;51.378;-1.342;2023-03-14T06:58:23;98547.91;;;16.59;30.83
67803;BME280;54601;51.378;-1.342;2023-03-14T07:00:48;98551.22;;;16.18;30.85
67803;BME280;54601;51.378;-1.342;2023-03-14T07:03:14;98556.05;;;16.12;31.04
67803;BME280;54601;51.378;-1.342;2023-03-14T07:05:39;98557.16;;;16.38;30.75
67803;BME280;54601;51.378;-1.342;2023-03-14T07:08:04;98561.19;;;16.42;30.71
67803;BME280;54601;51.378;-1.342;2023-03-14T07:10:29;98567.60;;;16.38;30.62
67803;BME280;54601;51.378;-1.342;2023-03-14T07:12:55;98574.78;;;16.23;30.56
67803;BME280;54601;51.378;-1.342;2023-03-14T07:15:20;98584.97;;;16.43;30.61
67803;BME280;54601;51.378;-1.342;2023-03-14T07:17:46;98591.66;;;16.57;30.45
67803;BME280;54601;51.378;-1.342;2023-03-14T07:20:11;98607.45;;;16.39;30.68
67803;BME280;54601;51.378;-1.342;2023-03-14T07:22:36;98617.10;;;16.35;31.11
67803;BME280;54601;51.378;-1.342;2023-03-14T07:25:02;98623.52;;;16.18;31.11
67803;BME280;54601;51.378;-1.342;2023-03-14T07:27:27;98627.07;;;16.27;30.89
67803;BME280;54601;51.378;-1.342;2023-03-14T07:29:52;98633.77;;;16.54;30.94
67803;BME280;54601;51.378;-1.342;2023-03-14T07:32:18;98642.32;;;16.49;30.75
67803;BME280;54601;51.378;-1.342;2023-03-14T07:34:43;98654.81;;;16.34;30.90
67803;BME280;54601;51.378;-1.342;2023-03-14T07:37:09;98663.55;;;16.43;30.81
67803;BME280;54601;51.378;-1.342;2023-03-14T07:39:34;98677.30;;;16.53;30.94
67803;BME280;54601;51.378;-1.342;2023-03-14T07:41:59;98688.09;;;16.18;31.11
67803;BME280;54601;51.378;-1.342;2023-03-14T07:44:25;98695.96;;;16.34;31.00
67803;BME280;54601;51.378;-1.342;2023-03-14T07:46:50;98704.78;;;16.37;31.22
67803;BME280;54601;51.378;-1.342;2023-03-14T07:49:15;98710.68;;;16.43;31.27
67803;BME280;54601;51.378;-1.342;2023-03-14T07:51:41;98721.15;;;16.43;31.21
67803;BME280;54601;51.378;-1.342;2023-03-14T07:54:06;98726.83;;;16.12;31.28
67803;BME280;54601;51.378;-1.342;2023-03-14T07:56:31;98729.82;;;16.47;31.16
67803;BME280;54601;51.378;-1.342;2023-03-14T07:58:57;98740.06;;;16.22;31.17
67803;BME280;54601;51.378;-1.342;2023-03-14T08:01:22;98751.08;;;16.56;31.38
67803;BME280;54601;51.378;-1.342;2023-03-14T08:03:47;98759.78;;;16.31;31.54
67803;BME280;54601;51.378;-1.342;2023-03-14T08:06:13;98767.03;;;16.39;31.27
67803;BME280;54601;51.378;-1.342;2023-03-14T08:08:38;98774.83;;;16.33;31.14
67803;BME280;54601;51.378;-1.342;2023-03-14T08:11:04;98790.84;;;16.12;31.28
67803;BME280;54601;51.378;-1.342;2023-03-14T08:13:29;98800.16;;;16.26;31.05
67803;BME280;54601;51.378;-1.342;2023-03-14T08:15:54;98821.84;;;16.12;31.12
67803;BME280;54601;51.378;-1.342;2023-03-14T08:18:20;98829.68;;;16.17;31.06
67803;BME280;54601;51.378;-1.342;2023-03-14T08:20:45;98841.74;;;16.30;30.85
67803;BME280;54601;51.378;-1.342;2023-03-14T08:23:10;98850.98;;;16.14;30.98
67803;BME280;54601;51.378;-1.342;2023-03-14T08:25:37;98863.06;;;16.44;31.11
67803;BME280;54601;51.378;-1.342;2023-03-14T08:28:01;98866.37;;;16.14;31.15
67803;BME280;54601;51.378;-1.342;2023-03-14T08:30:26;98875.12;;;16.62;30.82
67803;BME280;54601;51.378;-1.342;2023-03-14T08:32:52;98879.46;;;16.20;30.65
67803;BME280;54601;51.378;-1.342;2023-03-14T08:35:18;98888.09;;;15.97;30.99
67803;BME280;54601;51.378;-1.342;2023-03-14T08:37:43;98898.55;;;16.00;30.92
67803;BME280;54601;51.378;-1.342;2023-03-14T08:40:09;98910.69;;;16.46;30.87
67803;BME280;54601;51.378;-1.342;2023-03-14T08:42:34;98917.80;;;16.10;30.71
67803;BME280;54601;51.378;-1.342;2023-03-14T08:44:59;98924.13;;;16.24;30.56
67803;BME280;54601;51.378;-1.342;2023-03-14T08:47:24;98935.06;;;16.53;30.66
67803;BME280;54601;51.378;-1.342;2023-03-14T08:49:50;98942.19;;;16.35;30.57
67803;BME280;54601;51.378;-1.342;2023-03-14T08:52:15;98951.13;;;16.38;30.54
67803;BME280;54601;51.378;-1.342;2023-03-14T08:54:45;98955.66;;;16.49;30.65
67803;BME280;54601;51.378;-1.342;2023-03-14T08:57:06;98959.46;;;16.43;30.41
67803;BME280;54601;51.378;-1.342;2023-03-14T08:59:31;98972.67;;;16.34;30.54
67803;BME280;54601;51.378;-1.342;2023-03-14T09:01:56;98984.19;;;16.46;30.64
67803;BME280;54601;51.378;-1.342;2023-03-14T09:04:22;98988.16;;;16.19;30.65
67803;BME280;54601;51.378;-1.342;2023-03-14T09:06:47;99000.40;;;15.85;30.73
67803;BME280;54601;51.378;-1.342;2023-03-14T09:09:13;99006.65;;;16.39;30.62
67803;BME280;54601;51.378;-1.342;2023-03-14T09:11:38;99017.51;;;16.18;30.58
67803;BME280;54601;51.378;-1.342;2023-03-14T09:14:03;99022.58;;;15.97;30.77
67803;BME280;54601;51.378;-1.342;2023-03-14T09:16:29;99029.54;;;16.01;30.48
67803;BME280;54601;51.378;-1.342;2023-03-14T09:18:54;99040.98;;;16.21;30.47
67803;BME280;54601;51.378;-1.342;2023-03-14T09:21:19;99052.35;;;16.15;30.53
67803;BME280;54601;51.378;-1.342;2023-03-14T09:23:45;99062.59;;;16.38;30.29
67803;BME280;54601;51.378;-1.342;2023-03-14T09:26:10;99067.33;;;16.13;30.25
67803;BME280;54601;51.378;-1.342;2023-03-14T09:28:36;99081.35;;;15.99;30.44
67803;BME280;54601;51.378;-1.342;2023-03-14T09:31:06;99096.63;;;16.02;30.37
67803;BME280;54601;51.378;-1.342;2023-03-14T09:33:26;99101.70;;;16.07;30.29
67803;BME280;54601;51.378;-1.342;2023-03-14T09:35:52;99110.06;;;16.51;30.34
67803;BME280;54601;51.378;-1.342;2023-03-14T09:38:17;99115.14;;;16.32;30.32
67803;BME280;54601;51.378;-1.342;2023-03-14T09:40:43;99122.05;;;16.06;30.29
67803;BME280;54601;51.378;-1.342;2023-03-14T09:43:10;99134.28;;;16.53;30.24
67803;BME280;54601;51.378;-1.342;2023-03-14T09:45:36;99140.26;;;16.12;30.19
67803;BME280;54601;51.378;-1.342;2023-03-14T09:48:01;99147.25;;;16.17;30.10
67803;BME280;54601;51.378;-1.342;2023-03-14T09:50:25;99157.51;;;16.30;30.18
67803;BME280;54601;51.378;-1.342;2023-03-14T09:52:52;99159.45;;;16.65;30.09
67803;BME280;54601;51.378;-1.342;2023-03-14T09:55:17;99162.44;;;16.60;30.25
67803;BME280;54601;51.378;-1.342;2023-03-14T09:57:41;99169.37;;;16.18;30.32
67803;BME280;54601;51.378;-1.342;2023-03-14T10:00:14;99171.04;;;16.26;30.33
67803;BME280;54601;51.378;-1.342;2023-03-14T10:02:34;99177.48;;;16.35;30.34
67803;BME280;54601;51.378;-1.342;2023-03-14T10:04:57;99186.37;;;16.07;30.51
67803;BME280;54601;51.378;-1.342;2023-03-14T10:07:28;99198.20;;;16.58;30.25
67803;BME280;54601;51.378;-1.342;2023-03-14T10:09:50;99202.95;;;16.54;30.13
67803;BME280;54601;51.378;-1.342;2023-03-14T10:12:13;99208.61;;;16.30;30.26
67803;BME280;54601;51.378;-1.342;2023-03-14T10:14:45;99211.14;;;16.33;30.30
67803;BME280;54601;51.378;-1.342;2023-03-14T10:17:07;99215.27;;;16.51;30.25
67803;BME280;54601;51.378;-1.342;2023-03-14T10:19:29;99219.49;;;16.53;30.04
67803;BME280;54601;51.378;-1.342;2023-03-14T10:21:54;99227.35;;;16.43;30.18
67803;BME280;54601;51.378;-1.342;2023-03-14T10:24:22;99228.29;;;16.29;30.06
67803;BME280;54601;51.378;-1.342;2023-03-14T10:26:49;99236.36;;;16.83;29.93
67803;BME280;54601;51.378;-1.342;2023-03-14T10:29:12;99241.79;;;16.63;29.79
67803;BME280;54601;51.378;-1.342;2023-03-14T10:34:03;99253.51;;;16.77;29.88
67803;BME280;54601;51.378;-1.342;2023-03-14T10:36:28;99264.63;;;16.39;29.96
67803;BME280;54601;51.378;-1.342;2023-03-14T10:38:57;99267.75;;;16.43;30.01
67803;BME280;54601;51.378;-1.342;2023-03-14T10:41:22;99276.30;;;16.66;29.98
67803;BME280;54601;51.378;-1.342;2023-03-14T10:43:43;99283.60;;;16.76;29.87
67803;BME280;54601;51.378;-1.342;2023-03-14T10:46:12;99284.63;;;16.64;29.99
67803;BME280;54601;51.378;-1.342;2023-03-14T10:48:35;99285.13;;;16.38;29.95
67803;BME280;54601;51.378;-1.342;2023-03-14T10:51:04;99285.18;;;16.50;29.89
67803;BME280;54601;51.378;-1.342;2023-03-14T10:53:25;99293.24;;;16.59;29.83
67803;BME280;54601;51.378;-1.342;2023-03-14T10:55:50;99304.67;;;16.63;29.75
67803;BME280;54601;51.378;-1.342;2023-03-14T10:58:20;99308.77;;;16.72;29.86
67803;BME280;54601;51.378;-1.342;2023-03-14T11:00:40;99307.43;;;16.54;29.93
67803;BME280;54601;51.378;-1.342;2023-03-14T11:03:10;99313.93;;;16.67;29.87
67803;BME280;54601;51.378;-1.342;2023-03-14T11:05:36;99317.47;;;16.68;29.70
67803;BME280;54601;51.378;-1.342;2023-03-14T11:08:02;99325.42;;;16.63;29.93
67803;BME280;54601;51.378;-1.342;2023-03-14T11:10:26;99335.36;;;16.82;29.73
67803;BME280;54601;51.378;-1.342;2023-03-14T11:12:55;99341.08;;;17.05;29.74
67803;BME280;54601;51.378;-1.342;2023-03-14T11:15:18;99344.41;;;16.72;29.81
67803;BME280;54601;51.378;-1.342;2023-03-14T11:17:44;99348.80;;;16.90;29.80
67803;BME280;54601;51.378;-1.342;2023-03-14T11:20:15;99353.10;;;16.30;29.89
67803;BME280;54601;51.378;-1.342;2023-03-14T11:22:33;99358.81;;;17.08;29.76
67803;BME280;54601;51.378;-1.342;2023-03-14T11:25:04;99365.08;;;17.16;29.65
67803;BME280;54601;51.378;-1.342;2023-03-14T11:27:22;99372.43;;;16.79;29.75
67803;BME280;54601;51.378;-1.342;2023-03-14T11:29:51;99379.94;;;16.75;29.68
67803;BME280;54601;51.378;-1.342;2023-03-14T11:32:14;99386.77;;;16.70;29.70
67803;BME280;54601;51.378;-1.342;2023-03-14T11:34:39;99393.86;;;16.81;29.76
67803;BME280;54601;51.378;-1.342;2023-03-14T11:37:04;99399.62;;;17.04;29.73
67803;BME280;54601;51.378;-1.342;2023-03-14T11:39:36;99405.56;;;16.90;29.78
67803;BME280;54601;51.378;-1.342;2023-03-14T11:41:52;99413.58;;;16.75;29.67
67803;BME280;54601;51.378;-1.342;2023-03-14T11:44:19;99418.08;;;16.60;29.80
67803;BME280;54601;51.378;-1.342;2023-03-14T11:46:47;99421.55;;;16.47;29.89
67803;BME280;54601;51.378;-1.342;2023-03-14T11:49:14;99427.08;;;16.49;29.85
67803;BME280;54601;51.378;-1.342;2023-03-14T11:51:35;99428.45;;;16.76;29.85
67803;BME280;54601;51.378;-1.342;2023-03-14T11:54:04;99433.28;;;16.62;29.71
67803;BME280;54601;51.378;-1.342;2023-03-14T11:56:29;99436.09;;;17.05;29.51
67803;BME280;54601;51.378;-1.342;2023-03-14T11:58:55;99439.21;;;16.73;29.51
67803;BME280;54601;51.378;-1.342;2023-03-14T12:01:15;99439.57;;;16.58;29.66
67803;BME280;54601;51.378;-1.342;2023-03-14T12:03:45;99447.98;;;16.82;29.43
67803;BME280;54601;51.378;-1.342;2023-03-14T12:06:12;99449.53;;;16.89;29.60
67803;BME280;54601;51.378;-1.342;2023-03-14T12:08:39;99453.60;;;16.99;29.46
67803;BME280;54601;51.378;-1.342;2023-03-14T12:11:00;99456.13;;;17.10;29.36
67803;BME280;54601;51.378;-1.342;2023-03-14T12:13:21;99462.78;;;16.68;29.55
67803;BME280;54601;51.378;-1.342;2023-03-14T12:15:49;99468.41;;;16.87;29.57
67803;BME280;54601;51.378;-1.342;2023-03-14T12:18:19;99470.74;;;16.53;29.63
67803;BME280;54601;51.378;-1.342;2023-03-14T12:20:37;99471.07;;;16.69;29.49
67803;BME280;54601;51.378;-1.342;2023-03-14T12:23:04;99471.00;;;16.51;29.66
67803;BME280;54601;51.378;-1.342;2023-03-14T12:25:30;99466.68;;;16.67;29.76
67803;BME280;54601;51.378;-1.342;2023-03-14T12:30:25;99473.47;;;16.71;29.70
67803;BME280;54601;51.378;-1.342;2023-03-14T12:37:36;99474.37;;;16.19;29.69
67803;BME280;54601;51.378;-1.342;2023-03-14T12:44:51;99484.43;;;16.68;29.69
67803;BME280;54601;51.378;-1.342;2023-03-14T12:49:42;99481.59;;;16.85;29.47
67803;BME280;54601;51.378;-1.342;2023-03-14T12:52:14;99486.13;;;16.71;29.61
67803;BME280;54601;51.378;-1.342;2023-03-14T12:54:36;99482.66;;;16.42;29.62
67803;BME280;54601;51.378;-1.342;2023-03-14T12:57:04;99490.90;;;16.75;29.54
67803;BME280;54601;51.378;-1.342;2023-03-14T12:59:31;99491.08;;;16.85;29.45